10:35
Airports
History
Links
Donate
Help keep this website running!
PayPal
Bitcoin
This page is community maintained. The information is intended for PC simulator navigation or reference.
Always use approved charts for navigation.
SJBX
Severino Lopes
Severino Lopes (SJBX)
São José de Mipibu, Rio Grande do Norte, Brazil (59162)
4
Lat/Lng:6° 1' 12" S / 35° 14' 23" W
-6.02 / -35.239722
Elevation:329'ft / 100mMSL
ID / ICAO:SJBX
Runways:1
Longest:13-31
Grass 805m / 2,640ft
Nearby Weather10:00 GMT 2017-12-18
Nearby weather at SBNT, Augusto Severo located 7.5 nautical miles from SJBX
Altimeter: 29.94
Visibility: 6.2 statute miles
Wind: 16 knots (from 120°)
Temp: 29°c / 84°f
Humidity: 66.0%

METAR: SBNT 181000Z 12016KT 9999 SCT021 29/22 Q1014

(Powered by phpweather)
Runway 13 / 31
Dimensions:804.7 x 20.1m 2640' x 66'ft
Surface:Grass
Runway 13 [A]Runway 31 [B]
Heading:108°TH 288°TH
Lat:
Lng:
6° 1' 7.93"S
35° 14' 35.38"W
6° 1' 16.07"S
35° 14' 10.62"W
User Notes and Comments
6° 1' 12" S / 35° 14' 23" W
Distance To
Airport ID:
Nearby Airports
(C) Augusto Severo 7.5 NM
SBNT ( WX ) N 356°
(U) CEARA MIRIM 27.5 NM
SB38 NNW 334°
(U) Ceara - Mirim 27.6 NM
SNOG NNW 334°
(U) Senador Antonio Farias 29.9 NM
SIQA SSE 153°
(U) MAXARANGUAPE 48.2 NM
SNXX NNW 335°
(U) Tabuleiro 53.7 NM
SJFU SSW 209°
4 Fazenda Bebida Velha 54.0 NM
SNZO NNW 337°
VFR Chart
Flight Planning at SkyVector.com